Daphne, Alabama
Current Conditions -  °F | °C
As of 6:15 AM on Saturday 20 Dec 2014 (Local Time) from KCQF Reporting Station
Moderate Rain Moderate Rain  
Wind Chill: 41°   Ceiling: 500
Heat Index: 46°   Visibility: 10mi
Dew Point: 45°   Wind: 13mph
Humidity: 93%   Direction: 20°NNE
Pressure: 30.11"   Gusts: NA
Location:  30.6°N, 87.9°W
Report Text: KCQF 201215Z AUTO 02011KT 10SM RA OVC005 08/07 A3011 RMK AO2
Loading
Personal Weather Stations






























Interactive Weather Map New forecast layout! Learn more

10-Day Weather Forecast

Advertisements
Track Severe Weather on mobile